sensor_id;sensor_type;location;lat;lon;timestamp;P1;durP1;ratioP1;P2;durP2;ratioP2
44766;SDS011;30487;48.716;9.272;2023-04-25T00:01:33;3.15;;;1.77;;
44766;SDS011;30487;48.716;9.272;2023-04-25T00:04:01;4.47;;;2.10;;
44766;SDS011;30487;48.716;9.272;2023-04-25T00:06:27;3.03;;;1.60;;
44766;SDS011;30487;48.716;9.272;2023-04-25T00:08:55;3.35;;;1.63;;
44766;SDS011;30487;48.716;9.272;2023-04-25T00:11:21;3.53;;;2.00;;
44766;SDS011;30487;48.716;9.272;2023-04-25T00:13:47;3.65;;;2.05;;
44766;SDS011;30487;48.716;9.272;2023-04-25T00:16:14;4.20;;;2.05;;
44766;SDS011;30487;48.716;9.272;2023-04-25T00:18:41;3.63;;;2.00;;
44766;SDS011;30487;48.716;9.272;2023-04-25T00:21:07;2.83;;;1.60;;
44766;SDS011;30487;48.716;9.272;2023-04-25T00:23:33;3.55;;;1.70;;
44766;SDS011;30487;48.716;9.272;2023-04-25T00:26:01;4.68;;;1.50;;
44766;SDS011;30487;48.716;9.272;2023-04-25T00:28:27;3.05;;;1.77;;
44766;SDS011;30487;48.716;9.272;2023-04-25T00:30:53;4.72;;;1.83;;
44766;SDS011;30487;48.716;9.272;2023-04-25T00:33:18;3.60;;;1.73;;
44766;SDS011;30487;48.716;9.272;2023-04-25T00:35:44;3.38;;;1.73;;
44766;SDS011;30487;48.716;9.272;2023-04-25T00:38:09;3.13;;;1.85;;
44766;SDS011;30487;48.716;9.272;2023-04-25T00:40:35;6.15;;;1.90;;
44766;SDS011;30487;48.716;9.272;2023-04-25T00:43:00;3.90;;;1.90;;
44766;SDS011;30487;48.716;9.272;2023-04-25T00:45:27;4.15;;;1.80;;
44766;SDS011;30487;48.716;9.272;2023-04-25T00:47:54;3.45;;;1.73;;
44766;SDS011;30487;48.716;9.272;2023-04-25T00:50:20;4.90;;;2.10;;
44766;SDS011;30487;48.716;9.272;2023-04-25T00:52:46;4.88;;;2.13;;
44766;SDS011;30487;48.716;9.272;2023-04-25T00:55:12;3.95;;;1.90;;
44766;SDS011;30487;48.716;9.272;2023-04-25T00:57:38;4.95;;;2.00;;
44766;SDS011;30487;48.716;9.272;2023-04-25T01:00:05;3.95;;;1.70;;
44766;SDS011;30487;48.716;9.272;2023-04-25T01:02:32;3.45;;;1.85;;
44766;SDS011;30487;48.716;9.272;2023-04-25T01:04:58;3.58;;;1.90;;
44766;SDS011;30487;48.716;9.272;2023-04-25T01:07:24;3.28;;;1.75;;
44766;SDS011;30487;48.716;9.272;2023-04-25T01:09:53;4.65;;;2.10;;
44766;SDS011;30487;48.716;9.272;2023-04-25T01:12:19;4.50;;;2.03;;
44766;SDS011;30487;48.716;9.272;2023-04-25T01:14:44;3.70;;;1.75;;
44766;SDS011;30487;48.716;9.272;2023-04-25T01:17:11;5.03;;;2.10;;
44766;SDS011;30487;48.716;9.272;2023-04-25T01:19:37;3.55;;;1.77;;
44766;SDS011;30487;48.716;9.272;2023-04-25T01:22:03;3.97;;;2.13;;
44766;SDS011;30487;48.716;9.272;2023-04-25T01:24:29;3.58;;;1.98;;
44766;SDS011;30487;48.716;9.272;2023-04-25T01:26:56;3.72;;;2.30;;
44766;SDS011;30487;48.716;9.272;2023-04-25T01:29:23;4.63;;;2.15;;
44766;SDS011;30487;48.716;9.272;2023-04-25T01:31:49;4.88;;;1.92;;
44766;SDS011;30487;48.716;9.272;2023-04-25T01:34:16;4.55;;;2.20;;
44766;SDS011;30487;48.716;9.272;2023-04-25T01:36:42;3.50;;;1.92;;
44766;SDS011;30487;48.716;9.272;2023-04-25T01:39:07;3.83;;;2.40;;
44766;SDS011;30487;48.716;9.272;2023-04-25T01:41:34;3.78;;;2.05;;
44766;SDS011;30487;48.716;9.272;2023-04-25T01:43:59;3.50;;;2.10;;
44766;SDS011;30487;48.716;9.272;2023-04-25T01:46:25;5.75;;;2.05;;
44766;SDS011;30487;48.716;9.272;2023-04-25T01:48:51;4.30;;;1.92;;
44766;SDS011;30487;48.716;9.272;2023-04-25T01:51:17;4.07;;;2.30;;
44766;SDS011;30487;48.716;9.272;2023-04-25T01:53:43;4.68;;;2.10;;
44766;SDS011;30487;48.716;9.272;2023-04-25T01:56:08;4.32;;;2.20;;
44766;SDS011;30487;48.716;9.272;2023-04-25T01:58:34;5.57;;;2.03;;
44766;SDS011;30487;48.716;9.272;2023-04-25T02:01:00;3.40;;;2.17;;
44766;SDS011;30487;48.716;9.272;2023-04-25T02:03:25;3.83;;;1.90;;
44766;SDS011;30487;48.716;9.272;2023-04-25T02:05:51;4.05;;;1.90;;
44766;SDS011;30487;48.716;9.272;2023-04-25T02:08:17;2.80;;;1.77;;
44766;SDS011;30487;48.716;9.272;2023-04-25T02:10:43;7.45;;;2.08;;
44766;SDS011;30487;48.716;9.272;2023-04-25T02:13:09;4.07;;;1.65;;
44766;SDS011;30487;48.716;9.272;2023-04-25T02:15:34;3.25;;;1.58;;
44766;SDS011;30487;48.716;9.272;2023-04-25T02:18:00;4.47;;;1.60;;
44766;SDS011;30487;48.716;9.272;2023-04-25T02:20:26;3.38;;;1.40;;
44766;SDS011;30487;48.716;9.272;2023-04-25T02:22:55;2.42;;;1.42;;
44766;SDS011;30487;48.716;9.272;2023-04-25T02:25:21;3.28;;;1.45;;
44766;SDS011;30487;48.716;9.272;2023-04-25T02:27:47;4.05;;;1.70;;
44766;SDS011;30487;48.716;9.272;2023-04-25T02:30:13;3.13;;;1.20;;
44766;SDS011;30487;48.716;9.272;2023-04-25T02:32:39;3.97;;;1.60;;
44766;SDS011;30487;48.716;9.272;2023-04-25T02:35:05;3.42;;;1.35;;
44766;SDS011;30487;48.716;9.272;2023-04-25T02:37:35;2.78;;;1.20;;
44766;SDS011;30487;48.716;9.272;2023-04-25T02:40:01;3.65;;;1.25;;
44766;SDS011;30487;48.716;9.272;2023-04-25T02:42:30;3.92;;;1.40;;
44766;SDS011;30487;48.716;9.272;2023-04-25T02:44:56;2.33;;;1.05;;
44766;SDS011;30487;48.716;9.272;2023-04-25T02:47:22;2.80;;;1.20;;
44766;SDS011;30487;48.716;9.272;2023-04-25T02:49:47;2.15;;;1.20;;
44766;SDS011;30487;48.716;9.272;2023-04-25T02:52:13;2.83;;;1.20;;
44766;SDS011;30487;48.716;9.272;2023-04-25T02:54:39;3.00;;;1.45;;
44766;SDS011;30487;48.716;9.272;2023-04-25T02:57:05;3.33;;;1.40;;
44766;SDS011;30487;48.716;9.272;2023-04-25T02:59:31;2.00;;;1.00;;
44766;SDS011;30487;48.716;9.272;2023-04-25T03:01:56;3.75;;;1.40;;
44766;SDS011;30487;48.716;9.272;2023-04-25T03:04:22;2.60;;;1.20;;
44766;SDS011;30487;48.716;9.272;2023-04-25T03:06:48;3.90;;;1.20;;
44766;SDS011;30487;48.716;9.272;2023-04-25T03:09:15;2.88;;;1.35;;
44766;SDS011;30487;48.716;9.272;2023-04-25T03:11:41;2.35;;;1.20;;
44766;SDS011;30487;48.716;9.272;2023-04-25T03:14:07;2.97;;;1.25;;
44766;SDS011;30487;48.716;9.272;2023-04-25T03:16:32;4.55;;;1.40;;
44766;SDS011;30487;48.716;9.272;2023-04-25T03:18:58;2.28;;;1.33;;
44766;SDS011;30487;48.716;9.272;2023-04-25T03:21:24;2.08;;;1.30;;
44766;SDS011;30487;48.716;9.272;2023-04-25T03:23:50;3.83;;;1.40;;
44766;SDS011;30487;48.716;9.272;2023-04-25T03:26:15;4.05;;;1.38;;
44766;SDS011;30487;48.716;9.272;2023-04-25T03:28:41;2.42;;;1.13;;
44766;SDS011;30487;48.716;9.272;2023-04-25T03:31:07;3.72;;;1.15;;
44766;SDS011;30487;48.716;9.272;2023-04-25T03:33:32;5.40;;;1.63;;
44766;SDS011;30487;48.716;9.272;2023-04-25T03:35:58;3.25;;;1.42;;
44766;SDS011;30487;48.716;9.272;2023-04-25T03:38:23;3.15;;;1.40;;
44766;SDS011;30487;48.716;9.272;2023-04-25T03:40:49;3.85;;;1.67;;
44766;SDS011;30487;48.716;9.272;2023-04-25T03:43:16;4.38;;;1.40;;
44766;SDS011;30487;48.716;9.272;2023-04-25T03:45:41;2.42;;;1.30;;
44766;SDS011;30487;48.716;9.272;2023-04-25T03:48:07;3.22;;;1.23;;
44766;SDS011;30487;48.716;9.272;2023-04-25T03:50:33;2.22;;;1.30;;
44766;SDS011;30487;48.716;9.272;2023-04-25T03:52:58;3.67;;;1.40;;
44766;SDS011;30487;48.716;9.272;2023-04-25T03:55:24;4.35;;;1.73;;
44766;SDS011;30487;48.716;9.272;2023-04-25T03:57:49;3.92;;;1.63;;
44766;SDS011;30487;48.716;9.272;2023-04-25T04:00:15;4.88;;;1.48;;
44766;SDS011;30487;48.716;9.272;2023-04-25T04:02:41;3.65;;;1.50;;
44766;SDS011;30487;48.716;9.272;2023-04-25T04:05:07;3.17;;;1.70;;
44766;SDS011;30487;48.716;9.272;2023-04-25T04:07:33;5.93;;;1.70;;
44766;SDS011;30487;48.716;9.272;2023-04-25T04:10:01;3.95;;;1.65;;
44766;SDS011;30487;48.716;9.272;2023-04-25T04:12:27;4.32;;;1.50;;
44766;SDS011;30487;48.716;9.272;2023-04-25T04:14:52;3.28;;;1.45;;
44766;SDS011;30487;48.716;9.272;2023-04-25T04:17:18;3.33;;;1.42;;
44766;SDS011;30487;48.716;9.272;2023-04-25T04:19:43;3.70;;;1.40;;
44766;SDS011;30487;48.716;9.272;2023-04-25T04:22:09;3.47;;;1.40;;
44766;SDS011;30487;48.716;9.272;2023-04-25T04:24:35;3.75;;;1.77;;
44766;SDS011;30487;48.716;9.272;2023-04-25T04:27:00;2.78;;;1.48;;
44766;SDS011;30487;48.716;9.272;2023-04-25T04:29:26;4.60;;;1.40;;
44766;SDS011;30487;48.716;9.272;2023-04-25T04:31:52;4.43;;;1.60;;
44766;SDS011;30487;48.716;9.272;2023-04-25T04:34:17;2.55;;;1.38;;
44766;SDS011;30487;48.716;9.272;2023-04-25T04:36:46;3.15;;;1.50;;
44766;SDS011;30487;48.716;9.272;2023-04-25T04:39:13;3.03;;;1.40;;
44766;SDS011;30487;48.716;9.272;2023-04-25T04:41:39;4.07;;;1.77;;
44766;SDS011;30487;48.716;9.272;2023-04-25T04:44:04;4.78;;;1.40;;
44766;SDS011;30487;48.716;9.272;2023-04-25T04:46:31;3.78;;;1.77;;
44766;SDS011;30487;48.716;9.272;2023-04-25T04:49:02;3.78;;;1.67;;
44766;SDS011;30487;48.716;9.272;2023-04-25T04:51:30;4.25;;;1.50;;
44766;SDS011;30487;48.716;9.272;2023-04-25T04:53:56;3.70;;;1.50;;
44766;SDS011;30487;48.716;9.272;2023-04-25T04:56:23;4.30;;;1.80;;
44766;SDS011;30487;48.716;9.272;2023-04-25T04:58:50;2.55;;;1.48;;
44766;SDS011;30487;48.716;9.272;2023-04-25T05:01:16;2.83;;;1.50;;
44766;SDS011;30487;48.716;9.272;2023-04-25T05:03:41;3.78;;;1.58;;
44766;SDS011;30487;48.716;9.272;2023-04-25T05:06:07;5.38;;;1.65;;
44766;SDS011;30487;48.716;9.272;2023-04-25T05:08:33;4.28;;;1.80;;
44766;SDS011;30487;48.716;9.272;2023-04-25T05:10:59;4.95;;;1.80;;
44766;SDS011;30487;48.716;9.272;2023-04-25T05:13:25;5.15;;;1.67;;
44766;SDS011;30487;48.716;9.272;2023-04-25T05:15:50;3.83;;;2.05;;
44766;SDS011;30487;48.716;9.272;2023-04-25T05:18:16;5.50;;;1.88;;
44766;SDS011;30487;48.716;9.272;2023-04-25T05:20:41;5.03;;;1.85;;
44766;SDS011;30487;48.716;9.272;2023-04-25T05:23:07;5.88;;;2.13;;
44766;SDS011;30487;48.716;9.272;2023-04-25T05:25:32;6.63;;;2.15;;
44766;SDS011;30487;48.716;9.272;2023-04-25T05:27:58;4.80;;;1.75;;
44766;SDS011;30487;48.716;9.272;2023-04-25T05:30:24;5.45;;;1.90;;
44766;SDS011;30487;48.716;9.272;2023-04-25T05:32:49;4.40;;;1.80;;
44766;SDS011;30487;48.716;9.272;2023-04-25T05:35:15;4.40;;;2.05;;
44766;SDS011;30487;48.716;9.272;2023-04-25T05:37:41;4.88;;;1.80;;
44766;SDS011;30487;48.716;9.272;2023-04-25T05:40:07;3.80;;;1.70;;
44766;SDS011;30487;48.716;9.272;2023-04-25T05:42:33;6.50;;;1.63;;
44766;SDS011;30487;48.716;9.272;2023-04-25T05:44:59;3.33;;;1.60;;
44766;SDS011;30487;48.716;9.272;2023-04-25T05:47:25;6.55;;;1.95;;
44766;SDS011;30487;48.716;9.272;2023-04-25T05:49:51;5.85;;;1.90;;
44766;SDS011;30487;48.716;9.272;2023-04-25T05:52:17;4.15;;;1.42;;
44766;SDS011;30487;48.716;9.272;2023-04-25T05:54:42;2.78;;;1.70;;
44766;SDS011;30487;48.716;9.272;2023-04-25T05:57:08;4.50;;;1.90;;
44766;SDS011;30487;48.716;9.272;2023-04-25T05:59:33;4.75;;;1.92;;
44766;SDS011;30487;48.716;9.272;2023-04-25T06:01:59;3.97;;;1.85;;
44766;SDS011;30487;48.716;9.272;2023-04-25T06:04:25;6.80;;;1.80;;
44766;SDS011;30487;48.716;9.272;2023-04-25T06:06:51;5.78;;;1.88;;
44766;SDS011;30487;48.716;9.272;2023-04-25T06:09:16;4.13;;;1.58;;
44766;SDS011;30487;48.716;9.272;2023-04-25T06:11:42;4.55;;;1.92;;
44766;SDS011;30487;48.716;9.272;2023-04-25T06:14:08;4.40;;;1.45;;
44766;SDS011;30487;48.716;9.272;2023-04-25T06:16:33;4.60;;;1.65;;
44766;SDS011;30487;48.716;9.272;2023-04-25T06:18:59;4.85;;;2.00;;
44766;SDS011;30487;48.716;9.272;2023-04-25T06:21:24;4.95;;;1.80;;
44766;SDS011;30487;48.716;9.272;2023-04-25T06:23:50;5.60;;;1.92;;
44766;SDS011;30487;48.716;9.272;2023-04-25T06:26:16;4.35;;;2.08;;
44766;SDS011;30487;48.716;9.272;2023-04-25T06:28:42;4.28;;;1.75;;
44766;SDS011;30487;48.716;9.272;2023-04-25T06:31:07;5.13;;;2.03;;
44766;SDS011;30487;48.716;9.272;2023-04-25T06:33:33;3.33;;;1.90;;
44766;SDS011;30487;48.716;9.272;2023-04-25T06:35:58;4.93;;;1.92;;
44766;SDS011;30487;48.716;9.272;2023-04-25T06:38:24;3.53;;;1.75;;
44766;SDS011;30487;48.716;9.272;2023-04-25T06:40:49;3.38;;;1.70;;
44766;SDS011;30487;48.716;9.272;2023-04-25T06:43:16;3.55;;;1.92;;
44766;SDS011;30487;48.716;9.272;2023-04-25T06:45:41;3.67;;;1.65;;
44766;SDS011;30487;48.716;9.272;2023-04-25T06:48:07;2.78;;;1.70;;
44766;SDS011;30487;48.716;9.272;2023-04-25T06:50:33;3.42;;;1.63;;
44766;SDS011;30487;48.716;9.272;2023-04-25T06:52:59;3.35;;;1.50;;
44766;SDS011;30487;48.716;9.272;2023-04-25T06:55:26;4.72;;;1.60;;
44766;SDS011;30487;48.716;9.272;2023-04-25T06:57:52;4.75;;;1.77;;
44766;SDS011;30487;48.716;9.272;2023-04-25T07:00:17;4.38;;;1.90;;
44766;SDS011;30487;48.716;9.272;2023-04-25T07:02:43;4.40;;;2.03;;
44766;SDS011;30487;48.716;9.272;2023-04-25T07:05:10;6.75;;;2.00;;
44766;SDS011;30487;48.716;9.272;2023-04-25T07:07:35;3.65;;;1.70;;
44766;SDS011;30487;48.716;9.272;2023-04-25T07:10:01;5.72;;;2.28;;
44766;SDS011;30487;48.716;9.272;2023-04-25T07:12:27;3.00;;;1.90;;
44766;SDS011;30487;48.716;9.272;2023-04-25T07:14:52;3.58;;;1.70;;
44766;SDS011;30487;48.716;9.272;2023-04-25T07:17:18;3.28;;;1.67;;
44766;SDS011;30487;48.716;9.272;2023-04-25T07:19:43;3.65;;;1.70;;
44766;SDS011;30487;48.716;9.272;2023-04-25T07:22:09;4.70;;;1.70;;
44766;SDS011;30487;48.716;9.272;2023-04-25T07:24:35;3.60;;;1.58;;
44766;SDS011;30487;48.716;9.272;2023-04-25T07:27:00;2.80;;;1.60;;
44766;SDS011;30487;48.716;9.272;2023-04-25T07:29:27;2.80;;;1.73;;
44766;SDS011;30487;48.716;9.272;2023-04-25T07:31:53;4.07;;;1.83;;
44766;SDS011;30487;48.716;9.272;2023-04-25T07:34:19;2.63;;;1.67;;
44766;SDS011;30487;48.716;9.272;2023-04-25T07:36:44;5.00;;;1.88;;
44766;SDS011;30487;48.716;9.272;2023-04-25T07:39:10;3.10;;;1.70;;
44766;SDS011;30487;48.716;9.272;2023-04-25T07:41:36;2.55;;;1.70;;
44766;SDS011;30487;48.716;9.272;2023-04-25T07:44:01;2.35;;;1.42;;
44766;SDS011;30487;48.716;9.272;2023-04-25T07:46:27;3.35;;;1.70;;
44766;SDS011;30487;48.716;9.272;2023-04-25T07:48:53;3.00;;;1.73;;
44766;SDS011;30487;48.716;9.272;2023-04-25T07:51:18;2.90;;;1.80;;
44766;SDS011;30487;48.716;9.272;2023-04-25T07:53:45;4.38;;;2.10;;
44766;SDS011;30487;48.716;9.272;2023-04-25T07:56:11;4.28;;;2.00;;
44766;SDS011;30487;48.716;9.272;2023-04-25T07:58:36;5.00;;;2.10;;
44766;SDS011;30487;48.716;9.272;2023-04-25T08:01:02;4.90;;;2.30;;
44766;SDS011;30487;48.716;9.272;2023-04-25T08:03:28;2.78;;;1.90;;
44766;SDS011;30487;48.716;9.272;2023-04-25T08:05:53;4.20;;;2.05;;
44766;SDS011;30487;48.716;9.272;2023-04-25T08:08:19;4.97;;;2.70;;
44766;SDS011;30487;48.716;9.272;2023-04-25T08:10:44;5.05;;;2.50;;
44766;SDS011;30487;48.716;9.272;2023-04-25T08:13:10;4.32;;;2.30;;
44766;SDS011;30487;48.716;9.272;2023-04-25T08:15:36;3.40;;;2.30;;
44766;SDS011;30487;48.716;9.272;2023-04-25T08:18:01;6.13;;;2.40;;
44766;SDS011;30487;48.716;9.272;2023-04-25T08:20:27;5.40;;;2.70;;
44766;SDS011;30487;48.716;9.272;2023-04-25T08:22:53;3.97;;;2.45;;
44766;SDS011;30487;48.716;9.272;2023-04-25T08:25:19;4.75;;;2.50;;
44766;SDS011;30487;48.716;9.272;2023-04-25T08:27:44;4.85;;;2.63;;
44766;SDS011;30487;48.716;9.272;2023-04-25T08:30:10;5.28;;;2.78;;
44766;SDS011;30487;48.716;9.272;2023-04-25T08:32:36;5.00;;;2.50;;
44766;SDS011;30487;48.716;9.272;2023-04-25T08:35:03;4.13;;;2.60;;
44766;SDS011;30487;48.716;9.272;2023-04-25T08:37:29;5.57;;;2.40;;
44766;SDS011;30487;48.716;9.272;2023-04-25T08:39:55;3.88;;;2.22;;
44766;SDS011;30487;48.716;9.272;2023-04-25T08:42:21;3.35;;;2.13;;
44766;SDS011;30487;48.716;9.272;2023-04-25T08:44:48;4.60;;;2.53;;
44766;SDS011;30487;48.716;9.272;2023-04-25T08:47:14;3.30;;;2.05;;
44766;SDS011;30487;48.716;9.272;2023-04-25T08:49:42;3.75;;;2.15;;
44766;SDS011;30487;48.716;9.272;2023-04-25T08:52:10;5.68;;;2.53;;
44766;SDS011;30487;48.716;9.272;2023-04-25T08:54:37;5.22;;;2.58;;
44766;SDS011;30487;48.716;9.272;2023-04-25T08:57:09;8.63;;;3.03;;
44766;SDS011;30487;48.716;9.272;2023-04-25T08:59:35;5.25;;;2.58;;
44766;SDS011;30487;48.716;9.272;2023-04-25T09:02:02;4.97;;;3.17;;
44766;SDS011;30487;48.716;9.272;2023-04-25T09:04:30;6.43;;;3.10;;
44766;SDS011;30487;48.716;9.272;2023-04-25T09:06:56;4.95;;;3.00;;
44766;SDS011;30487;48.716;9.272;2023-04-25T09:09:22;7.35;;;3.00;;
44766;SDS011;30487;48.716;9.272;2023-04-25T09:11:48;5.90;;;3.20;;
44766;SDS011;30487;48.716;9.272;2023-04-25T09:14:22;5.30;;;2.80;;
44766;SDS011;30487;48.716;9.272;2023-04-25T09:19:22;4.95;;;2.80;;
44766;SDS011;30487;48.716;9.272;2023-04-25T09:21:49;5.05;;;2.90;;
44766;SDS011;30487;48.716;9.272;2023-04-25T09:24:15;6.47;;;3.00;;
44766;SDS011;30487;48.716;9.272;2023-04-25T09:26:40;5.82;;;3.08;;
44766;SDS011;30487;48.716;9.272;2023-04-25T09:29:06;8.40;;;3.15;;
44766;SDS011;30487;48.716;9.272;2023-04-25T09:31:32;6.05;;;2.65;;
44766;SDS011;30487;48.716;9.272;2023-04-25T09:33:59;4.13;;;2.60;;
44766;SDS011;30487;48.716;9.272;2023-04-25T09:36:29;4.40;;;2.60;;
44766;SDS011;30487;48.716;9.272;2023-04-25T09:38:55;6.50;;;2.90;;
44766;SDS011;30487;48.716;9.272;2023-04-25T09:41:24;4.80;;;3.10;;
44766;SDS011;30487;48.716;9.272;2023-04-25T09:43:50;7.43;;;3.40;;
44766;SDS011;30487;48.716;9.272;2023-04-25T09:46:16;4.68;;;3.00;;
44766;SDS011;30487;48.716;9.272;2023-04-25T09:48:49;5.55;;;3.40;;
44766;SDS011;30487;48.716;9.272;2023-04-25T09:51:16;5.75;;;3.13;;
44766;SDS011;30487;48.716;9.272;2023-04-25T09:53:45;4.88;;;2.88;;
44766;SDS011;30487;48.716;9.272;2023-04-25T09:56:14;4.50;;;2.83;;
44766;SDS011;30487;48.716;9.272;2023-04-25T09:58:41;5.85;;;2.47;;
44766;SDS011;30487;48.716;9.272;2023-04-25T10:01:07;3.47;;;2.33;;
44766;SDS011;30487;48.716;9.272;2023-04-25T10:03:35;3.72;;;2.30;;
44766;SDS011;30487;48.716;9.272;2023-04-25T10:06:26;3.97;;;2.35;;
44766;SDS011;30487;48.716;9.272;2023-04-25T10:08:51;4.88;;;2.35;;
44766;SDS011;30487;48.716;9.272;2023-04-25T10:11:19;3.83;;;2.08;;
44766;SDS011;30487;48.716;9.272;2023-04-25T10:13:48;2.85;;;2.05;;
44766;SDS011;30487;48.716;9.272;2023-04-25T10:16:14;2.67;;;1.83;;
44766;SDS011;30487;48.716;9.272;2023-04-25T10:18:41;4.07;;;2.15;;
44766;SDS011;30487;48.716;9.272;2023-04-25T10:21:06;2.95;;;1.75;;
44766;SDS011;30487;48.716;9.272;2023-04-25T10:23:32;4.00;;;2.00;;
44766;SDS011;30487;48.716;9.272;2023-04-25T10:26:01;3.13;;;1.70;;
44766;SDS011;30487;48.716;9.272;2023-04-25T10:28:27;3.83;;;1.80;;
44766;SDS011;30487;48.716;9.272;2023-04-25T10:31:03;2.40;;;1.60;;
44766;SDS011;30487;48.716;9.272;2023-04-25T10:33:33;2.40;;;1.40;;
44766;SDS011;30487;48.716;9.272;2023-04-25T10:36:12;2.60;;;1.50;;
44766;SDS011;30487;48.716;9.272;2023-04-25T10:38:38;2.47;;;1.38;;
44766;SDS011;30487;48.716;9.272;2023-04-25T10:41:08;2.15;;;1.25;;
44766;SDS011;30487;48.716;9.272;2023-04-25T10:43:44;2.13;;;1.10;;
44766;SDS011;30487;48.716;9.272;2023-04-25T10:48:49;3.28;;;1.08;;
44766;SDS011;30487;48.716;9.272;2023-04-25T10:51:19;3.65;;;1.25;;
44766;SDS011;30487;48.716;9.272;2023-04-25T10:54:08;1.48;;;0.80;;
44766;SDS011;30487;48.716;9.272;2023-04-25T10:56:38;3.72;;;0.88;;
44766;SDS011;30487;48.716;9.272;2023-04-25T10:59:10;1.42;;;0.85;;
44766;SDS011;30487;48.716;9.272;2023-04-25T11:01:38;2.25;;;0.80;;
44766;SDS011;30487;48.716;9.272;2023-04-25T11:04:22;1.60;;;0.90;;
44766;SDS011;30487;48.716;9.272;2023-04-25T11:09:47;1.95;;;0.70;;
44766;SDS011;30487;48.716;9.272;2023-04-25T11:12:14;1.10;;;0.65;;
44766;SDS011;30487;48.716;9.272;2023-04-25T11:14:41;1.88;;;0.60;;
44766;SDS011;30487;48.716;9.272;2023-04-25T11:17:06;0.85;;;0.50;;
44766;SDS011;30487;48.716;9.272;2023-04-25T11:19:32;2.35;;;0.70;;
44766;SDS011;30487;48.716;9.272;2023-04-25T11:21:59;2.75;;;1.50;;
44766;SDS011;30487;48.716;9.272;2023-04-25T11:24:29;3.20;;;1.58;;
44766;SDS011;30487;48.716;9.272;2023-04-25T11:26:55;3.15;;;1.42;;
44766;SDS011;30487;48.716;9.272;2023-04-25T11:29:23;1.63;;;1.00;;
44766;SDS011;30487;48.716;9.272;2023-04-25T11:31:51;1.60;;;0.90;;
44766;SDS011;30487;48.716;9.272;2023-04-25T11:34:18;1.95;;;0.80;;
44766;SDS011;30487;48.716;9.272;2023-04-25T11:36:44;1.83;;;0.82;;
44766;SDS011;30487;48.716;9.272;2023-04-25T11:39:11;1.50;;;0.60;;
44766;SDS011;30487;48.716;9.272;2023-04-25T11:41:37;1.60;;;0.60;;
44766;SDS011;30487;48.716;9.272;2023-04-25T11:44:03;1.30;;;0.70;;
44766;SDS011;30487;48.716;9.272;2023-04-25T11:46:29;1.98;;;0.88;;
44766;SDS011;30487;48.716;9.272;2023-04-25T11:48:55;1.48;;;0.80;;
44766;SDS011;30487;48.716;9.272;2023-04-25T11:51:22;1.70;;;1.10;;
44766;SDS011;30487;48.716;9.272;2023-04-25T11:53:47;1.33;;;0.80;;
44766;SDS011;30487;48.716;9.272;2023-04-25T11:56:13;2.13;;;0.90;;
44766;SDS011;30487;48.716;9.272;2023-04-25T11:58:55;1.70;;;1.05;;
44766;SDS011;30487;48.716;9.272;2023-04-25T12:01:41;1.92;;;1.05;;
44766;SDS011;30487;48.716;9.272;2023-04-25T12:04:16;2.88;;;1.30;;
44766;SDS011;30487;48.716;9.272;2023-04-25T12:06:46;3.08;;;1.40;;
44766;SDS011;30487;48.716;9.272;2023-04-25T12:09:13;2.35;;;1.25;;
44766;SDS011;30487;48.716;9.272;2023-04-25T12:11:47;3.28;;;1.20;;
44766;SDS011;30487;48.716;9.272;2023-04-25T12:14:20;2.63;;;1.60;;
44766;SDS011;30487;48.716;9.272;2023-04-25T12:16:48;2.13;;;1.40;;
44766;SDS011;30487;48.716;9.272;2023-04-25T12:19:16;4.00;;;1.40;;
44766;SDS011;30487;48.716;9.272;2023-04-25T12:21:43;3.60;;;1.55;;
44766;SDS011;30487;48.716;9.272;2023-04-25T12:24:14;3.55;;;1.77;;
44766;SDS011;30487;48.716;9.272;2023-04-25T12:26:49;3.60;;;1.70;;
44766;SDS011;30487;48.716;9.272;2023-04-25T12:29:20;4.70;;;1.85;;
44766;SDS011;30487;48.716;9.272;2023-04-25T12:31:47;3.17;;;1.75;;
44766;SDS011;30487;48.716;9.272;2023-04-25T12:34:13;3.38;;;2.15;;
44766;SDS011;30487;48.716;9.272;2023-04-25T12:36:39;4.57;;;2.25;;
44766;SDS011;30487;48.716;9.272;2023-04-25T12:39:05;5.72;;;2.78;;
44766;SDS011;30487;48.716;9.272;2023-04-25T12:41:31;4.03;;;2.47;;
44766;SDS011;30487;48.716;9.272;2023-04-25T12:43:57;4.78;;;2.75;;
44766;SDS011;30487;48.716;9.272;2023-04-25T12:46:23;3.78;;;2.40;;
44766;SDS011;30487;48.716;9.272;2023-04-25T12:48:48;3.67;;;2.45;;
44766;SDS011;30487;48.716;9.272;2023-04-25T12:51:14;4.93;;;2.63;;
44766;SDS011;30487;48.716;9.272;2023-04-25T12:53:40;3.85;;;2.50;;
44766;SDS011;30487;48.716;9.272;2023-04-25T12:56:06;6.72;;;2.72;;
44766;SDS011;30487;48.716;9.272;2023-04-25T12:58:33;4.00;;;2.42;;
44766;SDS011;30487;48.716;9.272;2023-04-25T13:00:58;4.10;;;2.17;;
44766;SDS011;30487;48.716;9.272;2023-04-25T13:03:24;4.70;;;2.75;;
44766;SDS011;30487;48.716;9.272;2023-04-25T13:05:50;5.30;;;2.55;;
44766;SDS011;30487;48.716;9.272;2023-04-25T13:08:17;4.93;;;2.88;;
44766;SDS011;30487;48.716;9.272;2023-04-25T13:10:43;4.15;;;2.60;;
44766;SDS011;30487;48.716;9.272;2023-04-25T13:13:09;6.43;;;2.42;;
44766;SDS011;30487;48.716;9.272;2023-04-25T13:15:35;6.20;;;3.15;;
44766;SDS011;30487;48.716;9.272;2023-04-25T13:18:01;4.85;;;2.38;;
44766;SDS011;30487;48.716;9.272;2023-04-25T13:20:28;4.78;;;2.70;;
44766;SDS011;30487;48.716;9.272;2023-04-25T13:22:53;4.65;;;2.38;;
44766;SDS011;30487;48.716;9.272;2023-04-25T13:25:20;4.70;;;2.63;;
44766;SDS011;30487;48.716;9.272;2023-04-25T13:27:46;8.88;;;3.00;;
44766;SDS011;30487;48.716;9.272;2023-04-25T13:30:12;5.07;;;2.58;;
44766;SDS011;30487;48.716;9.272;2023-04-25T13:32:38;5.38;;;2.95;;
44766;SDS011;30487;48.716;9.272;2023-04-25T13:35:05;6.90;;;2.75;;
44766;SDS011;30487;48.716;9.272;2023-04-25T13:37:33;5.30;;;2.95;;
44766;SDS011;30487;48.716;9.272;2023-04-25T13:40:02;5.95;;;2.80;;
44766;SDS011;30487;48.716;9.272;2023-04-25T13:42:30;6.07;;;2.92;;
44766;SDS011;30487;48.716;9.272;2023-04-25T13:44:56;6.13;;;3.30;;
44766;SDS011;30487;48.716;9.272;2023-04-25T13:47:22;8.95;;;3.00;;
44766;SDS011;30487;48.716;9.272;2023-04-25T13:49:48;5.40;;;2.63;;
44766;SDS011;30487;48.716;9.272;2023-04-25T13:52:14;4.40;;;2.80;;
44766;SDS011;30487;48.716;9.272;2023-04-25T13:54:40;4.75;;;2.60;;
44766;SDS011;30487;48.716;9.272;2023-04-25T13:57:05;6.63;;;3.10;;
44766;SDS011;30487;48.716;9.272;2023-04-25T13:59:31;6.32;;;2.97;;
44766;SDS011;30487;48.716;9.272;2023-04-25T14:01:57;7.55;;;3.25;;
44766;SDS011;30487;48.716;9.272;2023-04-25T14:04:23;8.60;;;3.55;;
44766;SDS011;30487;48.716;9.272;2023-04-25T14:06:49;5.13;;;2.97;;
44766;SDS011;30487;48.716;9.272;2023-04-25T14:09:15;5.95;;;2.95;;
44766;SDS011;30487;48.716;9.272;2023-04-25T14:11:41;7.47;;;3.10;;
44766;SDS011;30487;48.716;9.272;2023-04-25T14:14:06;9.73;;;3.67;;
44766;SDS011;30487;48.716;9.272;2023-04-25T14:16:33;7.55;;;3.60;;
44766;SDS011;30487;48.716;9.272;2023-04-25T14:18:59;6.20;;;3.20;;
44766;SDS011;30487;48.716;9.272;2023-04-25T14:21:25;7.75;;;3.78;;
44766;SDS011;30487;48.716;9.272;2023-04-25T14:23:51;8.50;;;4.00;;
44766;SDS011;30487;48.716;9.272;2023-04-25T14:26:17;7.20;;;4.03;;
44766;SDS011;30487;48.716;9.272;2023-04-25T14:28:43;7.70;;;3.80;;
44766;SDS011;30487;48.716;9.272;2023-04-25T14:31:08;7.03;;;4.00;;
44766;SDS011;30487;48.716;9.272;2023-04-25T14:33:34;8.10;;;3.83;;
44766;SDS011;30487;48.716;9.272;2023-04-25T14:36:00;8.98;;;4.40;;
44766;SDS011;30487;48.716;9.272;2023-04-25T14:38:25;7.60;;;4.03;;
44766;SDS011;30487;48.716;9.272;2023-04-25T14:40:51;8.50;;;4.13;;
44766;SDS011;30487;48.716;9.272;2023-04-25T14:43:18;7.50;;;4.40;;
44766;SDS011;30487;48.716;9.272;2023-04-25T14:45:44;9.57;;;4.28;;
44766;SDS011;30487;48.716;9.272;2023-04-25T14:48:10;5.75;;;3.50;;
44766;SDS011;30487;48.716;9.272;2023-04-25T14:50:36;7.30;;;3.47;;
44766;SDS011;30487;48.716;9.272;2023-04-25T14:53:01;7.72;;;3.90;;